sensor_id;sensor_type;location;lat;lon;timestamp;pressure;altitude;pressure_sealevel;temperature;humidity
25658;BME280;13517;59.320;18.042;2023-02-17T00:01:21;100430.66;;;2.21;100.00
25658;BME280;13517;59.320;18.042;2023-02-17T00:03:48;100365.19;;;1.88;100.00
25658;BME280;13517;59.320;18.042;2023-02-17T00:06:16;100419.28;;;2.15;100.00
25658;BME280;13517;59.320;18.042;2023-02-17T00:08:42;100348.63;;;1.78;100.00
25658;BME280;13517;59.320;18.042;2023-02-17T00:11:07;100383.63;;;1.94;100.00
25658;BME280;13517;59.320;18.042;2023-02-17T00:13:33;100404.34;;;2.11;100.00
25658;BME280;13517;59.320;18.042;2023-02-17T00:16:04;100385.34;;;1.95;100.00
25658;BME280;13517;59.320;18.042;2023-02-17T00:18:30;100388.97;;;1.93;100.00
25658;BME280;13517;59.320;18.042;2023-02-17T00:20:55;100327.94;;;1.59;100.00
25658;BME280;13517;59.320;18.042;2023-02-17T00:23:20;100380.22;;;1.89;100.00
25658;BME280;13517;59.320;18.042;2023-02-17T00:25:46;100369.69;;;1.86;100.00
25658;BME280;13517;59.320;18.042;2023-02-17T00:28:11;100385.34;;;1.95;100.00
25658;BME280;13517;59.320;18.042;2023-02-17T00:30:37;100391.28;;;2.03;100.00
25658;BME280;13517;59.320;18.042;2023-02-17T00:33:03;100332.00;;;1.71;100.00
25658;BME280;13517;59.320;18.042;2023-02-17T00:35:29;100335.47;;;1.73;100.00
25658;BME280;13517;59.320;18.042;2023-02-17T00:37:54;100303.31;;;1.54;100.00
25658;BME280;13517;59.320;18.042;2023-02-17T00:40:19;100326.97;;;1.62;100.00
25658;BME280;13517;59.320;18.042;2023-02-17T00:42:45;100371.38;;;1.88;100.00
25658;BME280;13517;59.320;18.042;2023-02-17T00:45:10;100377.03;;;2.04;100.00
25658;BME280;13517;59.320;18.042;2023-02-17T00:47:36;100319.75;;;1.66;100.00
25658;BME280;13517;59.320;18.042;2023-02-17T00:50:01;100365.06;;;1.91;100.00
25658;BME280;13517;59.320;18.042;2023-02-17T00:52:26;100339.03;;;1.74;100.00
25658;BME280;13517;59.320;18.042;2023-02-17T00:54:52;100380.53;;;2.07;100.00
25658;BME280;13517;59.320;18.042;2023-02-17T00:57:17;100317.66;;;1.75;100.00
25658;BME280;13517;59.320;18.042;2023-02-17T00:59:43;100365.59;;;2.01;100.00
25658;BME280;13517;59.320;18.042;2023-02-17T01:02:08;100325.59;;;1.77;100.00
25658;BME280;13517;59.320;18.042;2023-02-17T01:04:34;100342.00;;;1.90;100.00
25658;BME280;13517;59.320;18.042;2023-02-17T01:06:59;100332.31;;;1.87;100.00
25658;BME280;13517;59.320;18.042;2023-02-17T01:09:24;100281.03;;;1.57;100.00
25658;BME280;13517;59.320;18.042;2023-02-17T01:11:50;100296.69;;;1.66;100.00
25658;BME280;13517;59.320;18.042;2023-02-17T01:14:15;100321.16;;;1.77;100.00
25658;BME280;13517;59.320;18.042;2023-02-17T01:16:45;100367.09;;;2.10;100.00
25658;BME280;13517;59.320;18.042;2023-02-17T01:19:13;100324.34;;;1.87;100.00
25658;BME280;13517;59.320;18.042;2023-02-17T01:21:39;100333.00;;;1.94;100.00
25658;BME280;13517;59.320;18.042;2023-02-17T01:24:06;100373.22;;;2.12;100.00
25658;BME280;13517;59.320;18.042;2023-02-17T01:26:33;100356.75;;;2.00;100.00
25658;BME280;13517;59.320;18.042;2023-02-17T01:28:59;100362.91;;;2.02;100.00
25658;BME280;13517;59.320;18.042;2023-02-17T01:31:25;100291.50;;;1.61;100.00
25658;BME280;13517;59.320;18.042;2023-02-17T01:33:56;100380.19;;;2.16;100.00
25658;BME280;13517;59.320;18.042;2023-02-17T01:36:21;100362.69;;;2.09;100.00
25658;BME280;13517;59.320;18.042;2023-02-17T01:38:47;100362.47;;;2.15;100.00
25658;BME280;13517;59.320;18.042;2023-02-17T01:41:14;100392.53;;;2.18;100.00
25658;BME280;13517;59.320;18.042;2023-02-17T01:43:41;100369.41;;;2.19;100.00
25658;BME280;13517;59.320;18.042;2023-02-17T01:46:08;100368.97;;;2.31;100.00
25658;BME280;13517;59.320;18.042;2023-02-17T01:48:35;100370.44;;;2.40;100.00
25658;BME280;13517;59.320;18.042;2023-02-17T01:51:11;100321.56;;;2.16;100.00
25658;BME280;13517;59.320;18.042;2023-02-17T01:53:43;100319.53;;;2.23;100.00
25658;BME280;13517;59.320;18.042;2023-02-17T01:56:11;100342.84;;;2.41;100.00
25658;BME280;13517;59.320;18.042;2023-02-17T01:58:40;100325.47;;;2.31;100.00
25658;BME280;13517;59.320;18.042;2023-02-17T02:01:06;100314.50;;;2.39;100.00
25658;BME280;13517;59.320;18.042;2023-02-17T02:03:34;100331.53;;;2.60;100.00
25658;BME280;13517;59.320;18.042;2023-02-17T02:06:04;100352.22;;;2.77;100.00
25658;BME280;13517;59.320;18.042;2023-02-17T02:08:40;100312.16;;;2.55;100.00
25658;BME280;13517;59.320;18.042;2023-02-17T02:11:08;100290.34;;;2.43;100.00
25658;BME280;13517;59.320;18.042;2023-02-17T02:13:33;100345.72;;;2.84;100.00
25658;BME280;13517;59.320;18.042;2023-02-17T02:16:20;100340.38;;;2.84;100.00
25658;BME280;13517;59.320;18.042;2023-02-17T02:22:22;100326.22;;;2.82;100.00
25658;BME280;13517;59.320;18.042;2023-02-17T02:27:51;100322.03;;;2.75;100.00
25658;BME280;13517;59.320;18.042;2023-02-17T02:33:38;100302.22;;;2.58;100.00
25658;BME280;13517;59.320;18.042;2023-02-17T02:36:19;100307.38;;;2.63;100.00
25658;BME280;13517;59.320;18.042;2023-02-17T02:39:06;100298.41;;;2.66;100.00
25658;BME280;13517;59.320;18.042;2023-02-17T02:41:40;100286.22;;;2.58;100.00
25658;BME280;13517;59.320;18.042;2023-02-17T02:44:09;100295.59;;;2.69;100.00
25658;BME280;13517;59.320;18.042;2023-02-17T02:46:35;100302.50;;;2.75;100.00
25658;BME280;13517;59.320;18.042;2023-02-17T02:49:01;100286.94;;;2.64;100.00
25658;BME280;13517;59.320;18.042;2023-02-17T02:56:48;100292.66;;;2.77;100.00
25658;BME280;13517;59.320;18.042;2023-02-17T03:02:04;100284.47;;;2.81;100.00
25658;BME280;13517;59.320;18.042;2023-02-17T03:04:36;100248.59;;;2.66;100.00
25658;BME280;13517;59.320;18.042;2023-02-17T03:07:27;100272.06;;;2.80;100.00
25658;BME280;13517;59.320;18.042;2023-02-17T03:09:57;100270.28;;;2.81;100.00
25658;BME280;13517;59.320;18.042;2023-02-17T03:12:24;100263.06;;;2.83;100.00
25658;BME280;13517;59.320;18.042;2023-02-17T03:14:54;100250.84;;;2.77;100.00
25658;BME280;13517;59.320;18.042;2023-02-17T03:17:22;100258.94;;;2.74;100.00
25658;BME280;13517;59.320;18.042;2023-02-17T03:19:48;100236.25;;;2.64;100.00
25658;BME280;13517;59.320;18.042;2023-02-17T03:22:23;100249.22;;;2.73;100.00
25658;BME280;13517;59.320;18.042;2023-02-17T03:24:50;100198.66;;;2.48;100.00
25658;BME280;13517;59.320;18.042;2023-02-17T03:27:15;100191.88;;;2.39;100.00
25658;BME280;13517;59.320;18.042;2023-02-17T03:29:41;100202.31;;;2.45;100.00
25658;BME280;13517;59.320;18.042;2023-02-17T03:32:07;100193.44;;;2.44;100.00
25658;BME280;13517;59.320;18.042;2023-02-17T03:34:32;100211.94;;;2.49;100.00
25658;BME280;13517;59.320;18.042;2023-02-17T03:36:58;100185.84;;;2.34;100.00
25658;BME280;13517;59.320;18.042;2023-02-17T03:39:24;100224.22;;;2.53;100.00
25658;BME280;13517;59.320;18.042;2023-02-17T03:41:49;100193.06;;;2.31;100.00
25658;BME280;13517;59.320;18.042;2023-02-17T03:44:16;100221.47;;;2.55;100.00
25658;BME280;13517;59.320;18.042;2023-02-17T03:46:43;100158.09;;;2.17;100.00
25658;BME280;13517;59.320;18.042;2023-02-17T03:49:08;100217.41;;;2.68;100.00
25658;BME280;13517;59.320;18.042;2023-02-17T03:51:34;100204.25;;;2.64;100.00
25658;BME280;13517;59.320;18.042;2023-02-17T03:53:59;100224.03;;;2.80;100.00
25658;BME280;13517;59.320;18.042;2023-02-17T03:56:25;100176.09;;;2.56;100.00
25658;BME280;13517;59.320;18.042;2023-02-17T03:58:50;100178.53;;;2.63;100.00
25658;BME280;13517;59.320;18.042;2023-02-17T04:01:15;100118.31;;;2.35;100.00
25658;BME280;13517;59.320;18.042;2023-02-17T04:03:41;100229.44;;;3.01;100.00
25658;BME280;13517;59.320;18.042;2023-02-17T04:06:08;100235.38;;;3.08;100.00
25658;BME280;13517;59.320;18.042;2023-02-17T04:08:34;100167.03;;;2.61;100.00
25658;BME280;13517;59.320;18.042;2023-02-17T04:11:01;100186.13;;;2.72;100.00
25658;BME280;13517;59.320;18.042;2023-02-17T04:13:27;100199.63;;;2.90;100.00
25658;BME280;13517;59.320;18.042;2023-02-17T04:15:53;100213.38;;;3.03;100.00
25658;BME280;13517;59.320;18.042;2023-02-17T04:18:19;100190.00;;;2.87;100.00
25658;BME280;13517;59.320;18.042;2023-02-17T04:20:48;100158.78;;;2.67;100.00
25658;BME280;13517;59.320;18.042;2023-02-17T04:23:14;100168.03;;;2.80;100.00
25658;BME280;13517;59.320;18.042;2023-02-17T04:25:40;100210.28;;;3.12;100.00
25658;BME280;13517;59.320;18.042;2023-02-17T04:28:06;100203.72;;;3.21;100.00
25658;BME280;13517;59.320;18.042;2023-02-17T04:30:32;100196.50;;;3.23;100.00
25658;BME280;13517;59.320;18.042;2023-02-17T04:32:58;100165.91;;;3.09;100.00
25658;BME280;13517;59.320;18.042;2023-02-17T04:35:24;100166.72;;;3.11;100.00
25658;BME280;13517;59.320;18.042;2023-02-17T04:37:50;100105.34;;;2.70;100.00
25658;BME280;13517;59.320;18.042;2023-02-17T04:40:16;100153.81;;;3.00;100.00
25658;BME280;13517;59.320;18.042;2023-02-17T04:42:42;100187.53;;;3.24;100.00
25658;BME280;13517;59.320;18.042;2023-02-17T04:45:07;100138.09;;;2.94;100.00
25658;BME280;13517;59.320;18.042;2023-02-17T04:47:33;100170.22;;;3.13;100.00
25658;BME280;13517;59.320;18.042;2023-02-17T04:49:59;100176.88;;;3.24;100.00
25658;BME280;13517;59.320;18.042;2023-02-17T04:52:24;100185.41;;;3.32;100.00
25658;BME280;13517;59.320;18.042;2023-02-17T04:54:50;100170.69;;;3.23;100.00
25658;BME280;13517;59.320;18.042;2023-02-17T04:57:16;100022.22;;;2.38;100.00
25658;BME280;13517;59.320;18.042;2023-02-17T04:59:42;100094.00;;;2.85;100.00
25658;BME280;13517;59.320;18.042;2023-02-17T05:02:07;100101.66;;;2.93;100.00
25658;BME280;13517;59.320;18.042;2023-02-17T05:04:33;100155.47;;;3.25;100.00
25658;BME280;13517;59.320;18.042;2023-02-17T05:06:59;100157.88;;;3.32;100.00
25658;BME280;13517;59.320;18.042;2023-02-17T05:09:24;100137.25;;;3.15;100.00
25658;BME280;13517;59.320;18.042;2023-02-17T05:11:49;100098.63;;;3.03;100.00
25658;BME280;13517;59.320;18.042;2023-02-17T05:14:15;100161.84;;;3.42;100.00
25658;BME280;13517;59.320;18.042;2023-02-17T05:16:40;100133.09;;;3.28;100.00
25658;BME280;13517;59.320;18.042;2023-02-17T05:19:06;100090.53;;;3.04;100.00
25658;BME280;13517;59.320;18.042;2023-02-17T05:21:31;100071.06;;;3.02;100.00
25658;BME280;13517;59.320;18.042;2023-02-17T05:23:57;100092.66;;;3.17;100.00
25658;BME280;13517;59.320;18.042;2023-02-17T05:26:22;100147.50;;;3.45;100.00
25658;BME280;13517;59.320;18.042;2023-02-17T05:28:48;100100.41;;;3.23;100.00
25658;BME280;13517;59.320;18.042;2023-02-17T05:31:13;100113.47;;;3.29;100.00
25658;BME280;13517;59.320;18.042;2023-02-17T05:33:39;100114.88;;;3.38;100.00
25658;BME280;13517;59.320;18.042;2023-02-17T05:36:06;100136.41;;;3.54;100.00
25658;BME280;13517;59.320;18.042;2023-02-17T05:38:33;100138.28;;;3.52;100.00
25658;BME280;13517;59.320;18.042;2023-02-17T05:40:59;100098.13;;;3.34;100.00
25658;BME280;13517;59.320;18.042;2023-02-17T05:43:25;100052.16;;;3.07;100.00
25658;BME280;13517;59.320;18.042;2023-02-17T05:45:50;100075.50;;;3.22;100.00
25658;BME280;13517;59.320;18.042;2023-02-17T05:48:16;100078.16;;;3.22;100.00
25658;BME280;13517;59.320;18.042;2023-02-17T05:50:41;100106.94;;;3.36;100.00
25658;BME280;13517;59.320;18.042;2023-02-17T05:53:07;100057.66;;;3.04;100.00
25658;BME280;13517;59.320;18.042;2023-02-17T05:55:32;100070.72;;;3.10;100.00
25658;BME280;13517;59.320;18.042;2023-02-17T05:57:58;100062.84;;;3.07;100.00
25658;BME280;13517;59.320;18.042;2023-02-17T06:00:23;100046.38;;;2.97;100.00
25658;BME280;13517;59.320;18.042;2023-02-17T06:02:49;100114.66;;;3.43;100.00
25658;BME280;13517;59.320;18.042;2023-02-17T06:05:15;100016.38;;;2.92;100.00
25658;BME280;13517;59.320;18.042;2023-02-17T06:07:40;100098.66;;;3.43;100.00
25658;BME280;13517;59.320;18.042;2023-02-17T06:10:07;100097.44;;;3.50;100.00
25658;BME280;13517;59.320;18.042;2023-02-17T06:12:33;100046.06;;;3.24;100.00
25658;BME280;13517;59.320;18.042;2023-02-17T06:14:58;99958.66;;;2.70;100.00
25658;BME280;13517;59.320;18.042;2023-02-17T06:17:24;100091.00;;;3.54;100.00
25658;BME280;13517;59.320;18.042;2023-02-17T06:19:49;100009.41;;;3.08;100.00
25658;BME280;13517;59.320;18.042;2023-02-17T06:22:15;100038.94;;;3.24;100.00
25658;BME280;13517;59.320;18.042;2023-02-17T06:24:40;99987.88;;;2.92;100.00
25658;BME280;13517;59.320;18.042;2023-02-17T06:27:06;100090.88;;;3.57;100.00
25658;BME280;13517;59.320;18.042;2023-02-17T06:29:31;100045.59;;;3.35;100.00
25658;BME280;13517;59.320;18.042;2023-02-17T06:31:56;100085.47;;;3.59;100.00
25658;BME280;13517;59.320;18.042;2023-02-17T06:34:22;100039.25;;;3.37;100.00
25658;BME280;13517;59.320;18.042;2023-02-17T06:36:47;100000.91;;;3.19;100.00
25658;BME280;13517;59.320;18.042;2023-02-17T06:39:13;100045.81;;;3.49;100.00
25658;BME280;13517;59.320;18.042;2023-02-17T06:41:38;100064.94;;;3.59;100.00
25658;BME280;13517;59.320;18.042;2023-02-17T06:44:04;100025.78;;;3.40;100.00
25658;BME280;13517;59.320;18.042;2023-02-17T06:46:29;100021.50;;;3.36;100.00
25658;BME280;13517;59.320;18.042;2023-02-17T06:48:55;100067.56;;;3.61;100.00
25658;BME280;13517;59.320;18.042;2023-02-17T06:51:20;99986.84;;;3.16;100.00
25658;BME280;13517;59.320;18.042;2023-02-17T06:53:45;100056.81;;;3.62;100.00
25658;BME280;13517;59.320;18.042;2023-02-17T06:56:11;100014.16;;;3.42;100.00
25658;BME280;13517;59.320;18.042;2023-02-17T06:58:36;100011.03;;;3.51;100.00
25658;BME280;13517;59.320;18.042;2023-02-17T07:01:02;99986.28;;;3.28;100.00
25658;BME280;13517;59.320;18.042;2023-02-17T07:03:30;100044.19;;;3.66;100.00
25658;BME280;13517;59.320;18.042;2023-02-17T07:05:57;100013.41;;;3.57;100.00
25658;BME280;13517;59.320;18.042;2023-02-17T07:08:23;99996.91;;;3.49;100.00
25658;BME280;13517;59.320;18.042;2023-02-17T07:10:48;100029.59;;;3.73;100.00
25658;BME280;13517;59.320;18.042;2023-02-17T07:13:14;100025.09;;;3.74;100.00
25658;BME280;13517;59.320;18.042;2023-02-17T07:15:39;100025.09;;;3.74;100.00
25658;BME280;13517;59.320;18.042;2023-02-17T07:18:05;99963.53;;;3.38;100.00
25658;BME280;13517;59.320;18.042;2023-02-17T07:20:30;99990.16;;;3.59;100.00
25658;BME280;13517;59.320;18.042;2023-02-17T07:22:57;100015.22;;;3.76;100.00
25658;BME280;13517;59.320;18.042;2023-02-17T07:25:23;99980.44;;;3.58;100.00
25658;BME280;13517;59.320;18.042;2023-02-17T07:27:49;100013.84;;;3.86;100.00
25658;BME280;13517;59.320;18.042;2023-02-17T07:30:14;100001.25;;;3.88;100.00
25658;BME280;13517;59.320;18.042;2023-02-17T07:32:40;99996.78;;;3.89;100.00
25658;BME280;13517;59.320;18.042;2023-02-17T07:35:05;99814.84;;;2.84;100.00
25658;BME280;13517;59.320;18.042;2023-02-17T07:37:31;99992.94;;;3.94;100.00
25658;BME280;13517;59.320;18.042;2023-02-17T07:39:58;99912.06;;;3.54;100.00
25658;BME280;13517;59.320;18.042;2023-02-17T07:42:26;99963.84;;;3.88;100.00
25658;BME280;13517;59.320;18.042;2023-02-17T07:44:51;99947.50;;;3.77;100.00
25658;BME280;13517;59.320;18.042;2023-02-17T07:47:17;99893.06;;;3.60;100.00
25658;BME280;13517;59.320;18.042;2023-02-17T07:49:42;99923.34;;;3.78;100.00
25658;BME280;13517;59.320;18.042;2023-02-17T07:52:08;99943.06;;;3.95;100.00
25658;BME280;13517;59.320;18.042;2023-02-17T07:54:33;99971.69;;;4.11;100.00
25658;BME280;13517;59.320;18.042;2023-02-17T07:56:59;99949.34;;;4.12;100.00
25658;BME280;13517;59.320;18.042;2023-02-17T07:59:24;99891.69;;;3.88;100.00
25658;BME280;13517;59.320;18.042;2023-02-17T08:01:50;99870.09;;;3.75;100.00
25658;BME280;13517;59.320;18.042;2023-02-17T08:04:16;99905.72;;;4.11;100.00
25658;BME280;13517;59.320;18.042;2023-02-17T08:06:41;99884.97;;;3.99;100.00
25658;BME280;13517;59.320;18.042;2023-02-17T08:09:09;99853.91;;;3.96;100.00
25658;BME280;13517;59.320;18.042;2023-02-17T08:11:53;99866.72;;;4.07;100.00
25658;BME280;13517;59.320;18.042;2023-02-17T08:14:37;99897.53;;;4.32;100.00
25658;BME280;13517;59.320;18.042;2023-02-17T08:17:03;99864.03;;;4.25;100.00
25658;BME280;13517;59.320;18.042;2023-02-17T08:19:29;99857.13;;;4.20;100.00
25658;BME280;13517;59.320;18.042;2023-02-17T08:21:54;99815.00;;;4.08;100.00
25658;BME280;13517;59.320;18.042;2023-02-17T08:24:19;99867.00;;;4.36;100.00
25658;BME280;13517;59.320;18.042;2023-02-17T08:26:46;99834.53;;;4.26;100.00
25658;BME280;13517;59.320;18.042;2023-02-17T08:29:11;99879.41;;;4.55;100.00
25658;BME280;13517;59.320;18.042;2023-02-17T08:31:37;99848.91;;;4.41;100.00
25658;BME280;13517;59.320;18.042;2023-02-17T08:34:05;99858.97;;;4.54;100.00
25658;BME280;13517;59.320;18.042;2023-02-17T08:36:30;99876.06;;;4.67;100.00
25658;BME280;13517;59.320;18.042;2023-02-17T08:38:57;99883.00;;;4.71;100.00
25658;BME280;13517;59.320;18.042;2023-02-17T08:41:25;99856.03;;;4.58;100.00
25658;BME280;13517;59.320;18.042;2023-02-17T08:43:54;99884.19;;;4.82;100.00
25658;BME280;13517;59.320;18.042;2023-02-17T08:46:20;99782.91;;;4.26;100.00
25658;BME280;13517;59.320;18.042;2023-02-17T08:48:46;99874.38;;;4.82;100.00
25658;BME280;13517;59.320;18.042;2023-02-17T08:51:13;99831.38;;;4.69;100.00
25658;BME280;13517;59.320;18.042;2023-02-17T08:53:39;99799.94;;;4.57;100.00
25658;BME280;13517;59.320;18.042;2023-02-17T08:56:05;99814.38;;;4.70;100.00
25658;BME280;13517;59.320;18.042;2023-02-17T08:58:31;99854.53;;;5.02;100.00
25658;BME280;13517;59.320;18.042;2023-02-17T09:00:57;99822.78;;;4.96;100.00
25658;BME280;13517;59.320;18.042;2023-02-17T09:03:22;99774.59;;;4.80;100.00
25658;BME280;13517;59.320;18.042;2023-02-17T09:05:48;99791.44;;;4.98;100.00
25658;BME280;13517;59.320;18.042;2023-02-17T09:08:13;99711.19;;;4.50;100.00
25658;BME280;13517;59.320;18.042;2023-02-17T09:10:39;99815.59;;;5.13;100.00
25658;BME280;13517;59.320;18.042;2023-02-17T09:13:04;99832.34;;;5.32;100.00
25658;BME280;13517;59.320;18.042;2023-02-17T09:15:30;99811.88;;;5.31;100.00
25658;BME280;13517;59.320;18.042;2023-02-17T09:17:55;99818.91;;;5.49;100.00
25658;BME280;13517;59.320;18.042;2023-02-17T09:20:21;99795.06;;;5.44;100.00
25658;BME280;13517;59.320;18.042;2023-02-17T09:22:46;99796.34;;;5.53;100.00
25658;BME280;13517;59.320;18.042;2023-02-17T09:25:12;99758.72;;;5.40;100.00
25658;BME280;13517;59.320;18.042;2023-02-17T09:27:37;99769.56;;;5.53;100.00
25658;BME280;13517;59.320;18.042;2023-02-17T09:30:03;99749.78;;;5.55;100.00
25658;BME280;13517;59.320;18.042;2023-02-17T09:32:29;99755.72;;;5.61;100.00
25658;BME280;13517;59.320;18.042;2023-02-17T09:34:54;99762.84;;;5.76;100.00
25658;BME280;13517;59.320;18.042;2023-02-17T09:37:20;99762.00;;;5.90;100.00
25658;BME280;13517;59.320;18.042;2023-02-17T09:39:47;99681.25;;;5.51;100.00
25658;BME280;13517;59.320;18.042;2023-02-17T09:42:21;99749.38;;;5.92;100.00
25658;BME280;13517;59.320;18.042;2023-02-17T09:45:00;99738.91;;;5.88;100.00
25658;BME280;13517;59.320;18.042;2023-02-17T09:47:58;99740.66;;;5.89;100.00
25658;BME280;13517;59.320;18.042;2023-02-17T09:50:31;99699.56;;;5.73;100.00
25658;BME280;13517;59.320;18.042;2023-02-17T09:55:51;99676.88;;;5.79;100.00
25658;BME280;13517;59.320;18.042;2023-02-17T09:58:30;99706.69;;;6.04;100.00
25658;BME280;13517;59.320;18.042;2023-02-17T10:01:00;99694.94;;;6.06;100.00
25658;BME280;13517;59.320;18.042;2023-02-17T10:11:32;99644.34;;;6.00;100.00
25658;BME280;13517;59.320;18.042;2023-02-17T10:14:23;99641.66;;;6.00;100.00
25658;BME280;13517;59.320;18.042;2023-02-17T10:16:56;99639.38;;;6.08;100.00
25658;BME280;13517;59.320;18.042;2023-02-17T10:19:28;99634.22;;;6.05;100.00
25658;BME280;13517;59.320;18.042;2023-02-17T10:22:06;99620.41;;;5.97;100.00
25658;BME280;13517;59.320;18.042;2023-02-17T10:24:32;99620.41;;;5.97;100.00
25658;BME280;13517;59.320;18.042;2023-02-17T10:32:56;99589.03;;;5.70;100.00
25658;BME280;13517;59.320;18.042;2023-02-17T10:35:54;99565.69;;;5.57;100.00
25658;BME280;13517;59.320;18.042;2023-02-17T10:38:48;99569.31;;;5.71;100.00
25658;BME280;13517;59.320;18.042;2023-02-17T10:41:13;99560.91;;;5.63;100.00
25658;BME280;13517;59.320;18.042;2023-02-17T10:43:40;99551.81;;;5.65;100.00
25658;BME280;13517;59.320;18.042;2023-02-17T10:46:07;99528.41;;;5.54;100.00
25658;BME280;13517;59.320;18.042;2023-02-17T10:48:39;99506.97;;;5.54;100.00
25658;BME280;13517;59.320;18.042;2023-02-17T10:51:12;99527.41;;;5.70;100.00
25658;BME280;13517;59.320;18.042;2023-02-17T10:53:39;99507.13;;;5.66;100.00
25658;BME280;13517;59.320;18.042;2023-02-17T10:56:09;99504.84;;;5.74;100.00
25658;BME280;13517;59.320;18.042;2023-02-17T10:58:58;99505.09;;;5.69;100.00
25658;BME280;13517;59.320;18.042;2023-02-17T11:01:28;99444.41;;;5.55;100.00
25658;BME280;13517;59.320;18.042;2023-02-17T11:04:08;99461.56;;;5.66;100.00
25658;BME280;13517;59.320;18.042;2023-02-17T11:06:41;99467.69;;;5.82;100.00
25658;BME280;13517;59.320;18.042;2023-02-17T11:09:23;99430.97;;;5.70;100.00
25658;BME280;13517;59.320;18.042;2023-02-17T11:12:10;99407.81;;;5.69;100.00
25658;BME280;13517;59.320;18.042;2023-02-17T11:14:36;99424.41;;;5.89;100.00
25658;BME280;13517;59.320;18.042;2023-02-17T11:19:59;99396.28;;;5.81;100.00
25658;BME280;13517;59.320;18.042;2023-02-17T11:22:37;99411.81;;;6.04;100.00
25658;BME280;13517;59.320;18.042;2023-02-17T11:25:26;99380.31;;;5.93;100.00
25658;BME280;13517;59.320;18.042;2023-02-17T11:28:11;99371.06;;;5.84;100.00
25658;BME280;13517;59.320;18.042;2023-02-17T11:30:39;99374.84;;;5.81;100.00
25658;BME280;13517;59.320;18.042;2023-02-17T11:33:13;99384.59;;;5.82;100.00
25658;BME280;13517;59.320;18.042;2023-02-17T11:38:24;99354.81;;;5.59;100.00
25658;BME280;13517;59.320;18.042;2023-02-17T11:40:59;99366.09;;;5.65;100.00
25658;BME280;13517;59.320;18.042;2023-02-17T11:43:26;99293.06;;;5.21;100.00
25658;BME280;13517;59.320;18.042;2023-02-17T11:51:50;99344.72;;;5.50;100.00
25658;BME280;13517;59.320;18.042;2023-02-17T11:54:30;99327.56;;;5.40;100.00
25658;BME280;13517;59.320;18.042;2023-02-17T11:57:43;99324.88;;;5.40;100.00
25658;BME280;13517;59.320;18.042;2023-02-17T11:59:59;99312.28;;;5.27;100.00
25658;BME280;13517;59.320;18.042;2023-02-17T12:02:59;99299.28;;;5.21;100.00
25658;BME280;13517;59.320;18.042;2023-02-17T12:08:21;99251.00;;;4.95;100.00
25658;BME280;13517;59.320;18.042;2023-02-17T12:24:43;99214.94;;;4.73;100.00
25658;BME280;13517;59.320;18.042;2023-02-17T12:30:20;99186.13;;;4.64;100.00
25658;BME280;13517;59.320;18.042;2023-02-17T12:35:24;99152.00;;;4.40;100.00
25658;BME280;13517;59.320;18.042;2023-02-17T12:37:55;99156.34;;;4.56;100.00
25658;BME280;13517;59.320;18.042;2023-02-17T12:40:52;99152.44;;;4.47;100.00
25658;BME280;13517;59.320;18.042;2023-02-17T12:43:27;99117.56;;;4.21;100.00
25658;BME280;13517;59.320;18.042;2023-02-17T12:45:57;99135.53;;;4.46;100.00
25658;BME280;13517;59.320;18.042;2023-02-17T12:48:25;99129.03;;;4.50;100.00
25658;BME280;13517;59.320;18.042;2023-02-17T12:51:01;99117.69;;;4.47;100.00
25658;BME280;13517;59.320;18.042;2023-02-17T12:56:01;99067.19;;;4.15;100.00
25658;BME280;13517;59.320;18.042;2023-02-17T12:58:29;99086.53;;;4.33;100.00
25658;BME280;13517;59.320;18.042;2023-02-17T13:01:11;99047.06;;;4.09;100.00
25658;BME280;13517;59.320;18.042;2023-02-17T13:03:38;99046.88;;;4.12;100.00
25658;BME280;13517;59.320;18.042;2023-02-17T13:09:01;99041.34;;;4.01;100.00
25658;BME280;13517;59.320;18.042;2023-02-17T13:11:32;99027.34;;;3.97;100.00
25658;BME280;13517;59.320;18.042;2023-02-17T13:16:46;98993.72;;;3.80;100.00
25658;BME280;13517;59.320;18.042;2023-02-17T13:19:13;98962.75;;;3.63;100.00
25658;BME280;13517;59.320;18.042;2023-02-17T13:21:52;98927.13;;;3.35;100.00
25658;BME280;13517;59.320;18.042;2023-02-17T13:24:38;98985.63;;;3.67;100.00
25658;BME280;13517;59.320;18.042;2023-02-17T13:27:29;98960.28;;;3.60;100.00
25658;BME280;13517;59.320;18.042;2023-02-17T13:32:30;98946.81;;;3.61;100.00
25658;BME280;13517;59.320;18.042;2023-02-17T13:37:44;98895.78;;;3.38;100.00
25658;BME280;13517;59.320;18.042;2023-02-17T13:42:52;98834.69;;;3.06;100.00
25658;BME280;13517;59.320;18.042;2023-02-17T13:45:30;98866.81;;;3.32;100.00
25658;BME280;13517;59.320;18.042;2023-02-17T13:48:09;98872.41;;;3.42;100.00
25658;BME280;13517;59.320;18.042;2023-02-17T13:50:37;98783.81;;;2.95;100.00
25658;BME280;13517;59.320;18.042;2023-02-17T13:55:59;98820.13;;;3.25;100.00
25658;BME280;13517;59.320;18.042;2023-02-17T13:58:28;98782.28;;;3.05;100.00
25658;BME280;13517;59.320;18.042;2023-02-17T14:00:56;98743.91;;;2.93;100.00
25658;BME280;13517;59.320;18.042;2023-02-17T14:05:49;98779.66;;;3.18;100.00
25658;BME280;13517;59.320;18.042;2023-02-17T14:08:35;98775.59;;;3.12;100.00
25658;BME280;13517;59.320;18.042;2023-02-17T14:11:11;98758.72;;;3.12;100.00
25658;BME280;13517;59.320;18.042;2023-02-17T14:13:39;98678.56;;;2.73;100.00
25658;BME280;13517;59.320;18.042;2023-02-17T14:16:06;98698.03;;;2.88;100.00
25658;BME280;13517;59.320;18.042;2023-02-17T14:18:39;98711.97;;;3.06;100.00
25658;BME280;13517;59.320;18.042;2023-02-17T14:21:09;98689.72;;;2.93;100.00
25658;BME280;13517;59.320;18.042;2023-02-17T14:23:45;98705.13;;;3.02;100.00